sensor_id;sensor_type;location;lat;lon;timestamp;P1;durP1;ratioP1;P2;durP2;ratioP2
60060;SDS011;45933;51.336;12.612;2023-03-21T00:01:40;29.40;;;20.03;;
60060;SDS011;45933;51.336;12.612;2023-03-21T00:04:06;28.77;;;19.03;;
60060;SDS011;45933;51.336;12.612;2023-03-21T00:06:31;28.73;;;19.57;;
60060;SDS011;45933;51.336;12.612;2023-03-21T00:08:56;29.53;;;20.20;;
60060;SDS011;45933;51.336;12.612;2023-03-21T00:11:22;28.03;;;19.53;;
60060;SDS011;45933;51.336;12.612;2023-03-21T00:13:47;29.00;;;19.17;;
60060;SDS011;45933;51.336;12.612;2023-03-21T00:16:13;32.73;;;21.00;;
60060;SDS011;45933;51.336;12.612;2023-03-21T00:18:45;37.10;;;20.93;;
60060;SDS011;45933;51.336;12.612;2023-03-21T00:21:17;31.17;;;20.40;;
60060;SDS011;45933;51.336;12.612;2023-03-21T00:23:43;32.27;;;19.97;;
60060;SDS011;45933;51.336;12.612;2023-03-21T00:26:10;28.00;;;19.93;;
60060;SDS011;45933;51.336;12.612;2023-03-21T00:28:36;33.00;;;21.23;;
60060;SDS011;45933;51.336;12.612;2023-03-21T00:31:03;31.30;;;20.40;;
60060;SDS011;45933;51.336;12.612;2023-03-21T00:33:28;32.30;;;20.47;;
60060;SDS011;45933;51.336;12.612;2023-03-21T00:35:54;29.37;;;19.87;;
60060;SDS011;45933;51.336;12.612;2023-03-21T00:38:20;30.30;;;20.40;;
60060;SDS011;45933;51.336;12.612;2023-03-21T00:40:46;29.73;;;20.33;;
60060;SDS011;45933;51.336;12.612;2023-03-21T00:43:12;33.33;;;20.90;;
60060;SDS011;45933;51.336;12.612;2023-03-21T00:45:42;31.33;;;20.33;;
60060;SDS011;45933;51.336;12.612;2023-03-21T00:48:08;28.70;;;19.87;;
60060;SDS011;45933;51.336;12.612;2023-03-21T00:50:33;35.50;;;20.80;;
60060;SDS011;45933;51.336;12.612;2023-03-21T00:52:59;30.00;;;19.83;;
60060;SDS011;45933;51.336;12.612;2023-03-21T00:55:24;29.90;;;19.10;;
60060;SDS011;45933;51.336;12.612;2023-03-21T00:57:50;27.57;;;19.27;;
60060;SDS011;45933;51.336;12.612;2023-03-21T01:00:15;28.40;;;17.07;;
60060;SDS011;45933;51.336;12.612;2023-03-21T01:02:42;25.57;;;18.43;;
60060;SDS011;45933;51.336;12.612;2023-03-21T01:05:20;27.30;;;17.83;;
60060;SDS011;45933;51.336;12.612;2023-03-21T01:08:05;25.23;;;17.37;;
60060;SDS011;45933;51.336;12.612;2023-03-21T01:10:31;26.67;;;17.90;;
60060;SDS011;45933;51.336;12.612;2023-03-21T01:12:57;26.03;;;18.37;;
60060;SDS011;45933;51.336;12.612;2023-03-21T01:15:22;26.10;;;17.30;;
60060;SDS011;45933;51.336;12.612;2023-03-21T01:17:47;23.47;;;16.43;;
60060;SDS011;45933;51.336;12.612;2023-03-21T01:20:13;28.13;;;18.07;;
60060;SDS011;45933;51.336;12.612;2023-03-21T01:22:38;26.43;;;18.93;;
60060;SDS011;45933;51.336;12.612;2023-03-21T01:25:03;23.17;;;17.07;;
60060;SDS011;45933;51.336;12.612;2023-03-21T01:27:29;21.80;;;14.67;;
60060;SDS011;45933;51.336;12.612;2023-03-21T01:29:54;20.17;;;14.53;;
60060;SDS011;45933;51.336;12.612;2023-03-21T01:32:20;18.60;;;13.10;;
60060;SDS011;45933;51.336;12.612;2023-03-21T01:34:45;16.33;;;11.83;;
60060;SDS011;45933;51.336;12.612;2023-03-21T01:37:11;16.43;;;11.50;;
60060;SDS011;45933;51.336;12.612;2023-03-21T01:39:36;16.20;;;10.50;;
60060;SDS011;45933;51.336;12.612;2023-03-21T01:42:01;12.53;;;10.07;;
60060;SDS011;45933;51.336;12.612;2023-03-21T01:44:27;16.53;;;11.13;;
60060;SDS011;45933;51.336;12.612;2023-03-21T01:46:52;14.90;;;10.37;;
60060;SDS011;45933;51.336;12.612;2023-03-21T01:52:00;17.23;;;10.80;;
60060;SDS011;45933;51.336;12.612;2023-03-21T01:54:32;14.60;;;10.50;;
60060;SDS011;45933;51.336;12.612;2023-03-21T01:57:03;13.90;;;10.77;;
60060;SDS011;45933;51.336;12.612;2023-03-21T01:59:35;13.93;;;10.30;;
60060;SDS011;45933;51.336;12.612;2023-03-21T02:02:04;13.90;;;10.97;;
60060;SDS011;45933;51.336;12.612;2023-03-21T02:04:34;12.70;;;10.23;;
60060;SDS011;45933;51.336;12.612;2023-03-21T02:07:11;14.17;;;10.50;;
60060;SDS011;45933;51.336;12.612;2023-03-21T02:09:43;12.00;;;10.07;;
60060;SDS011;45933;51.336;12.612;2023-03-21T02:12:11;13.20;;;10.03;;
60060;SDS011;45933;51.336;12.612;2023-03-21T02:14:36;12.20;;;9.97;;
60060;SDS011;45933;51.336;12.612;2023-03-21T02:17:27;16.87;;;10.57;;
60060;SDS011;45933;51.336;12.612;2023-03-21T02:20:15;14.00;;;9.93;;
60060;SDS011;45933;51.336;12.612;2023-03-21T02:26:02;14.07;;;10.17;;
60060;SDS011;45933;51.336;12.612;2023-03-21T02:28:46;13.67;;;11.30;;
60060;SDS011;45933;51.336;12.612;2023-03-21T02:31:33;13.77;;;9.23;;
60060;SDS011;45933;51.336;12.612;2023-03-21T02:34:24;12.60;;;10.30;;
60060;SDS011;45933;51.336;12.612;2023-03-21T02:37:11;16.43;;;10.77;;
60060;SDS011;45933;51.336;12.612;2023-03-21T02:50:32;15.83;;;10.80;;
60060;SDS011;45933;51.336;12.612;2023-03-21T02:53:05;15.33;;;11.37;;
60060;SDS011;45933;51.336;12.612;2023-03-21T02:55:32;13.73;;;10.70;;
60060;SDS011;45933;51.336;12.612;2023-03-21T02:57:59;15.27;;;11.20;;
60060;SDS011;45933;51.336;12.612;2023-03-21T03:00:27;16.33;;;11.57;;
60060;SDS011;45933;51.336;12.612;2023-03-21T03:02:55;12.77;;;10.33;;
60060;SDS011;45933;51.336;12.612;2023-03-21T03:05:22;18.80;;;11.63;;
60060;SDS011;45933;51.336;12.612;2023-03-21T03:10:33;16.80;;;11.67;;
60060;SDS011;45933;51.336;12.612;2023-03-21T03:13:13;16.53;;;10.93;;
60060;SDS011;45933;51.336;12.612;2023-03-21T03:21:38;15.03;;;10.37;;
60060;SDS011;45933;51.336;12.612;2023-03-21T03:24:25;12.37;;;9.93;;
60060;SDS011;45933;51.336;12.612;2023-03-21T03:29:23;13.87;;;10.97;;
60060;SDS011;45933;51.336;12.612;2023-03-21T03:31:58;18.50;;;10.37;;
60060;SDS011;45933;51.336;12.612;2023-03-21T03:34:30;15.23;;;10.73;;
60060;SDS011;45933;51.336;12.612;2023-03-21T03:37:03;13.63;;;10.80;;
60060;SDS011;45933;51.336;12.612;2023-03-21T03:39:34;15.80;;;10.93;;
60060;SDS011;45933;51.336;12.612;2023-03-21T03:42:04;16.67;;;11.13;;
60060;SDS011;45933;51.336;12.612;2023-03-21T03:44:36;15.13;;;10.93;;
60060;SDS011;45933;51.336;12.612;2023-03-21T03:47:04;13.13;;;10.73;;
60060;SDS011;45933;51.336;12.612;2023-03-21T03:49:35;14.07;;;10.53;;
60060;SDS011;45933;51.336;12.612;2023-03-21T03:52:15;18.93;;;11.40;;
60060;SDS011;45933;51.336;12.612;2023-03-21T03:54:45;17.67;;;11.47;;
60060;SDS011;45933;51.336;12.612;2023-03-21T03:57:12;14.33;;;10.57;;
60060;SDS011;45933;51.336;12.612;2023-03-21T03:59:40;14.27;;;9.97;;
60060;SDS011;45933;51.336;12.612;2023-03-21T04:02:07;18.40;;;11.40;;
60060;SDS011;45933;51.336;12.612;2023-03-21T04:04:32;14.63;;;10.20;;
60060;SDS011;45933;51.336;12.612;2023-03-21T04:06:59;16.20;;;12.47;;
60060;SDS011;45933;51.336;12.612;2023-03-21T04:09:25;16.63;;;11.97;;
60060;SDS011;45933;51.336;12.612;2023-03-21T04:11:52;15.83;;;10.93;;
60060;SDS011;45933;51.336;12.612;2023-03-21T04:14:18;15.77;;;10.50;;
60060;SDS011;45933;51.336;12.612;2023-03-21T04:16:43;14.33;;;10.03;;
60060;SDS011;45933;51.336;12.612;2023-03-21T04:19:09;16.77;;;9.50;;
60060;SDS011;45933;51.336;12.612;2023-03-21T04:21:34;17.17;;;9.90;;
60060;SDS011;45933;51.336;12.612;2023-03-21T04:24:00;12.70;;;8.53;;
60060;SDS011;45933;51.336;12.612;2023-03-21T04:26:25;12.00;;;8.30;;
60060;SDS011;45933;51.336;12.612;2023-03-21T04:28:56;12.20;;;8.37;;
60060;SDS011;45933;51.336;12.612;2023-03-21T04:31:24;10.27;;;8.47;;
60060;SDS011;45933;51.336;12.612;2023-03-21T04:33:55;14.23;;;9.27;;
60060;SDS011;45933;51.336;12.612;2023-03-21T04:36:22;14.73;;;8.60;;
60060;SDS011;45933;51.336;12.612;2023-03-21T04:38:55;13.37;;;8.67;;
60060;SDS011;45933;51.336;12.612;2023-03-21T04:41:28;11.33;;;8.30;;
60060;SDS011;45933;51.336;12.612;2023-03-21T04:43:54;12.30;;;8.70;;
60060;SDS011;45933;51.336;12.612;2023-03-21T04:46:21;12.53;;;8.27;;
60060;SDS011;45933;51.336;12.612;2023-03-21T04:48:46;13.97;;;9.03;;
60060;SDS011;45933;51.336;12.612;2023-03-21T04:51:12;11.17;;;7.77;;
60060;SDS011;45933;51.336;12.612;2023-03-21T04:53:38;14.27;;;8.80;;
60060;SDS011;45933;51.336;12.612;2023-03-21T04:56:06;11.80;;;7.90;;
60060;SDS011;45933;51.336;12.612;2023-03-21T04:58:32;14.33;;;8.03;;
60060;SDS011;45933;51.336;12.612;2023-03-21T05:00:57;12.20;;;7.40;;
60060;SDS011;45933;51.336;12.612;2023-03-21T05:03:23;12.27;;;8.33;;
60060;SDS011;45933;51.336;12.612;2023-03-21T05:05:49;14.70;;;8.77;;
60060;SDS011;45933;51.336;12.612;2023-03-21T05:08:14;11.83;;;7.80;;
60060;SDS011;45933;51.336;12.612;2023-03-21T05:10:40;13.07;;;8.37;;
60060;SDS011;45933;51.336;12.612;2023-03-21T05:13:06;14.10;;;7.77;;
60060;SDS011;45933;51.336;12.612;2023-03-21T05:15:31;12.10;;;7.63;;
60060;SDS011;45933;51.336;12.612;2023-03-21T05:17:56;11.37;;;8.00;;
60060;SDS011;45933;51.336;12.612;2023-03-21T05:20:34;12.10;;;7.30;;
60060;SDS011;45933;51.336;12.612;2023-03-21T05:22:59;10.30;;;7.57;;
60060;SDS011;45933;51.336;12.612;2023-03-21T05:25:25;20.37;;;7.73;;
60060;SDS011;45933;51.336;12.612;2023-03-21T05:27:58;11.43;;;7.33;;
60060;SDS011;45933;51.336;12.612;2023-03-21T05:30:25;13.10;;;8.20;;
60060;SDS011;45933;51.336;12.612;2023-03-21T05:32:51;15.07;;;7.80;;
60060;SDS011;45933;51.336;12.612;2023-03-21T05:35:17;11.13;;;7.80;;
60060;SDS011;45933;51.336;12.612;2023-03-21T05:37:42;13.97;;;7.93;;
60060;SDS011;45933;51.336;12.612;2023-03-21T05:40:08;13.37;;;8.00;;
60060;SDS011;45933;51.336;12.612;2023-03-21T05:42:34;11.77;;;7.50;;
60060;SDS011;45933;51.336;12.612;2023-03-21T05:44:59;11.03;;;6.90;;
60060;SDS011;45933;51.336;12.612;2023-03-21T05:47:25;11.03;;;7.33;;
60060;SDS011;45933;51.336;12.612;2023-03-21T05:49:50;11.13;;;7.57;;
60060;SDS011;45933;51.336;12.612;2023-03-21T05:52:16;15.33;;;8.17;;
60060;SDS011;45933;51.336;12.612;2023-03-21T05:54:41;10.13;;;7.50;;
60060;SDS011;45933;51.336;12.612;2023-03-21T05:57:07;11.33;;;6.97;;
60060;SDS011;45933;51.336;12.612;2023-03-21T05:59:32;10.07;;;6.90;;
60060;SDS011;45933;51.336;12.612;2023-03-21T06:01:58;14.57;;;8.10;;
60060;SDS011;45933;51.336;12.612;2023-03-21T06:04:23;11.20;;;7.27;;
60060;SDS011;45933;51.336;12.612;2023-03-21T06:06:48;13.13;;;7.37;;
60060;SDS011;45933;51.336;12.612;2023-03-21T06:09:15;9.00;;;7.00;;
60060;SDS011;45933;51.336;12.612;2023-03-21T06:11:42;15.47;;;7.63;;
60060;SDS011;45933;51.336;12.612;2023-03-21T06:14:10;11.87;;;7.07;;
60060;SDS011;45933;51.336;12.612;2023-03-21T06:16:36;11.23;;;7.33;;
60060;SDS011;45933;51.336;12.612;2023-03-21T06:19:01;11.20;;;7.03;;
60060;SDS011;45933;51.336;12.612;2023-03-21T06:21:26;13.07;;;7.47;;
60060;SDS011;45933;51.336;12.612;2023-03-21T06:23:52;15.27;;;7.57;;
60060;SDS011;45933;51.336;12.612;2023-03-21T06:26:17;13.27;;;7.20;;
60060;SDS011;45933;51.336;12.612;2023-03-21T06:28:47;11.50;;;7.27;;
60060;SDS011;45933;51.336;12.612;2023-03-21T06:31:16;13.60;;;7.17;;
60060;SDS011;45933;51.336;12.612;2023-03-21T06:33:41;13.13;;;7.60;;
60060;SDS011;45933;51.336;12.612;2023-03-21T06:36:10;13.93;;;7.60;;
60060;SDS011;45933;51.336;12.612;2023-03-21T06:38:35;13.60;;;7.43;;
60060;SDS011;45933;51.336;12.612;2023-03-21T06:41:02;11.97;;;6.97;;
60060;SDS011;45933;51.336;12.612;2023-03-21T06:43:29;11.60;;;7.17;;
60060;SDS011;45933;51.336;12.612;2023-03-21T06:45:55;11.43;;;6.67;;
60060;SDS011;45933;51.336;12.612;2023-03-21T06:48:20;11.33;;;7.27;;
60060;SDS011;45933;51.336;12.612;2023-03-21T06:50:47;13.07;;;6.93;;
60060;SDS011;45933;51.336;12.612;2023-03-21T06:53:13;12.33;;;6.77;;
60060;SDS011;45933;51.336;12.612;2023-03-21T06:55:38;15.23;;;7.10;;
60060;SDS011;45933;51.336;12.612;2023-03-21T06:58:04;11.00;;;6.10;;
60060;SDS011;45933;51.336;12.612;2023-03-21T07:00:29;12.03;;;6.80;;
60060;SDS011;45933;51.336;12.612;2023-03-21T07:02:54;9.80;;;6.23;;
60060;SDS011;45933;51.336;12.612;2023-03-21T07:05:20;11.03;;;6.80;;
60060;SDS011;45933;51.336;12.612;2023-03-21T07:07:45;10.90;;;6.70;;
60060;SDS011;45933;51.336;12.612;2023-03-21T07:10:11;13.77;;;6.43;;
60060;SDS011;45933;51.336;12.612;2023-03-21T07:12:36;12.67;;;6.53;;
60060;SDS011;45933;51.336;12.612;2023-03-21T07:15:02;10.10;;;5.97;;
60060;SDS011;45933;51.336;12.612;2023-03-21T07:17:28;11.43;;;6.20;;
60060;SDS011;45933;51.336;12.612;2023-03-21T07:19:54;13.57;;;6.33;;
60060;SDS011;45933;51.336;12.612;2023-03-21T07:22:19;11.00;;;6.33;;
60060;SDS011;45933;51.336;12.612;2023-03-21T07:24:45;10.73;;;5.90;;
60060;SDS011;45933;51.336;12.612;2023-03-21T07:27:15;14.83;;;5.17;;
60060;SDS011;45933;51.336;12.612;2023-03-21T07:29:41;11.87;;;6.47;;
60060;SDS011;45933;51.336;12.612;2023-03-21T07:32:07;11.20;;;5.43;;
60060;SDS011;45933;51.336;12.612;2023-03-21T07:34:34;10.13;;;6.07;;
60060;SDS011;45933;51.336;12.612;2023-03-21T07:36:59;11.97;;;6.07;;
60060;SDS011;45933;51.336;12.612;2023-03-21T07:39:25;13.93;;;7.43;;
60060;SDS011;45933;51.336;12.612;2023-03-21T07:41:51;13.47;;;7.17;;
60060;SDS011;45933;51.336;12.612;2023-03-21T07:44:19;11.40;;;6.40;;
60060;SDS011;45933;51.336;12.612;2023-03-21T07:46:46;10.23;;;6.27;;
60060;SDS011;45933;51.336;12.612;2023-03-21T07:49:12;8.43;;;5.93;;
60060;SDS011;45933;51.336;12.612;2023-03-21T07:51:37;10.80;;;6.00;;
60060;SDS011;45933;51.336;12.612;2023-03-21T07:54:02;12.30;;;6.30;;
60060;SDS011;45933;51.336;12.612;2023-03-21T07:56:28;13.30;;;5.93;;
60060;SDS011;45933;51.336;12.612;2023-03-21T07:58:53;11.10;;;5.40;;
60060;SDS011;45933;51.336;12.612;2023-03-21T08:01:19;12.53;;;5.87;;
60060;SDS011;45933;51.336;12.612;2023-03-21T08:03:45;10.50;;;5.50;;
60060;SDS011;45933;51.336;12.612;2023-03-21T08:06:11;8.40;;;5.00;;
60060;SDS011;45933;51.336;12.612;2023-03-21T08:08:37;9.97;;;5.10;;
60060;SDS011;45933;51.336;12.612;2023-03-21T08:11:03;8.23;;;5.50;;
60060;SDS011;45933;51.336;12.612;2023-03-21T08:13:29;9.90;;;5.57;;
60060;SDS011;45933;51.336;12.612;2023-03-21T08:15:54;8.13;;;4.57;;
60060;SDS011;45933;51.336;12.612;2023-03-21T08:18:19;9.03;;;4.83;;
60060;SDS011;45933;51.336;12.612;2023-03-21T08:20:45;8.13;;;5.13;;
60060;SDS011;45933;51.336;12.612;2023-03-21T08:23:16;10.00;;;4.80;;
60060;SDS011;45933;51.336;12.612;2023-03-21T08:25:41;11.60;;;4.93;;
60060;SDS011;45933;51.336;12.612;2023-03-21T08:28:06;7.33;;;4.73;;
60060;SDS011;45933;51.336;12.612;2023-03-21T08:30:31;12.20;;;4.33;;
60060;SDS011;45933;51.336;12.612;2023-03-21T08:32:58;10.37;;;4.77;;
60060;SDS011;45933;51.336;12.612;2023-03-21T08:35:23;7.77;;;4.63;;
60060;SDS011;45933;51.336;12.612;2023-03-21T08:37:49;9.33;;;4.63;;
60060;SDS011;45933;51.336;12.612;2023-03-21T08:40:15;7.53;;;4.67;;
60060;SDS011;45933;51.336;12.612;2023-03-21T08:42:42;7.93;;;4.13;;
60060;SDS011;45933;51.336;12.612;2023-03-21T08:45:10;14.32;;;8.70;;
60060;SDS011;45933;51.336;12.612;2023-03-21T08:47:36;13.60;;;5.28;;
60060;SDS011;45933;51.336;12.612;2023-03-21T08:50:03;8.35;;;4.70;;
60060;SDS011;45933;51.336;12.612;2023-03-21T08:52:30;14.13;;;12.32;;
60060;SDS011;45933;51.336;12.612;2023-03-21T08:54:56;8.25;;;5.10;;
60060;SDS011;45933;51.336;12.612;2023-03-21T08:57:21;8.15;;;5.10;;
60060;SDS011;45933;51.336;12.612;2023-03-21T08:59:46;7.93;;;4.57;;
60060;SDS011;45933;51.336;12.612;2023-03-21T09:02:12;7.18;;;4.35;;
60060;SDS011;45933;51.336;12.612;2023-03-21T09:04:39;8.73;;;4.47;;
60060;SDS011;45933;51.336;12.612;2023-03-21T09:07:05;9.90;;;4.95;;
60060;SDS011;45933;51.336;12.612;2023-03-21T09:09:30;8.55;;;4.53;;
60060;SDS011;45933;51.336;12.612;2023-03-21T09:11:56;14.87;;;9.17;;
60060;SDS011;45933;51.336;12.612;2023-03-21T09:14:22;9.20;;;5.27;;
60060;SDS011;45933;51.336;12.612;2023-03-21T09:16:47;6.23;;;4.13;;
60060;SDS011;45933;51.336;12.612;2023-03-21T09:19:12;8.30;;;4.50;;
60060;SDS011;45933;51.336;12.612;2023-03-21T09:21:38;11.48;;;5.05;;
60060;SDS011;45933;51.336;12.612;2023-03-21T09:24:03;10.65;;;5.10;;
60060;SDS011;45933;51.336;12.612;2023-03-21T09:26:30;11.75;;;5.20;;
60060;SDS011;45933;51.336;12.612;2023-03-21T09:28:56;6.18;;;4.03;;
60060;SDS011;45933;51.336;12.612;2023-03-21T09:31:23;6.70;;;3.90;;
60060;SDS011;45933;51.336;12.612;2023-03-21T09:33:48;7.93;;;4.40;;
60060;SDS011;45933;51.336;12.612;2023-03-21T09:36:15;8.95;;;3.97;;
60060;SDS011;45933;51.336;12.612;2023-03-21T09:38:41;6.90;;;4.47;;
60060;SDS011;45933;51.336;12.612;2023-03-21T09:41:28;9.70;;;4.45;;
60060;SDS011;45933;51.336;12.612;2023-03-21T09:44:18;8.23;;;4.30;;
60060;SDS011;45933;51.336;12.612;2023-03-21T09:49:45;9.68;;;4.40;;
60060;SDS011;45933;51.336;12.612;2023-03-21T09:52:18;9.80;;;4.53;;
60060;SDS011;45933;51.336;12.612;2023-03-21T09:54:47;5.28;;;3.75;;
60060;SDS011;45933;51.336;12.612;2023-03-21T09:57:33;7.32;;;4.47;;
60060;SDS011;45933;51.336;12.612;2023-03-21T10:00:06;7.90;;;4.30;;
60060;SDS011;45933;51.336;12.612;2023-03-21T10:02:41;6.20;;;4.10;;
60060;SDS011;45933;51.336;12.612;2023-03-21T10:05:18;6.78;;;4.22;;
60060;SDS011;45933;51.336;12.612;2023-03-21T10:08:05;10.68;;;4.35;;
60060;SDS011;45933;51.336;12.612;2023-03-21T10:10:38;5.28;;;4.15;;
60060;SDS011;45933;51.336;12.612;2023-03-21T10:13:12;5.90;;;3.70;;
60060;SDS011;45933;51.336;12.612;2023-03-21T10:15:40;4.97;;;4.03;;
60060;SDS011;45933;51.336;12.612;2023-03-21T10:18:06;5.82;;;4.50;;
60060;SDS011;45933;51.336;12.612;2023-03-21T10:20:38;7.35;;;4.57;;
60060;SDS011;45933;51.336;12.612;2023-03-21T10:23:07;5.32;;;4.22;;
60060;SDS011;45933;51.336;12.612;2023-03-21T10:25:40;8.13;;;4.45;;
60060;SDS011;45933;51.336;12.612;2023-03-21T10:28:10;5.82;;;4.05;;
60060;SDS011;45933;51.336;12.612;2023-03-21T10:30:41;9.93;;;4.55;;
60060;SDS011;45933;51.336;12.612;2023-03-21T10:33:12;5.88;;;4.32;;
60060;SDS011;45933;51.336;12.612;2023-03-21T10:35:45;4.00;;;3.33;;
60060;SDS011;45933;51.336;12.612;2023-03-21T10:38:16;4.88;;;3.28;;
60060;SDS011;45933;51.336;12.612;2023-03-21T10:40:43;4.00;;;3.30;;
60060;SDS011;45933;51.336;12.612;2023-03-21T10:43:30;5.32;;;3.30;;
60060;SDS011;45933;51.336;12.612;2023-03-21T10:46:10;5.78;;;3.10;;
60060;SDS011;45933;51.336;12.612;2023-03-21T10:48:46;4.75;;;3.30;;
60060;SDS011;45933;51.336;12.612;2023-03-21T10:51:18;5.35;;;3.70;;
60060;SDS011;45933;51.336;12.612;2023-03-21T10:53:48;5.28;;;3.72;;
60060;SDS011;45933;51.336;12.612;2023-03-21T10:56:17;4.20;;;3.50;;
60060;SDS011;45933;51.336;12.612;2023-03-21T10:58:52;4.95;;;3.78;;
60060;SDS011;45933;51.336;12.612;2023-03-21T11:01:24;3.92;;;3.30;;
60060;SDS011;45933;51.336;12.612;2023-03-21T11:03:55;5.85;;;3.67;;
60060;SDS011;45933;51.336;12.612;2023-03-21T11:06:25;5.93;;;3.92;;
60060;SDS011;45933;51.336;12.612;2023-03-21T11:08:54;4.20;;;3.58;;
60060;SDS011;45933;51.336;12.612;2023-03-21T11:11:24;4.28;;;3.50;;
60060;SDS011;45933;51.336;12.612;2023-03-21T11:13:56;4.88;;;3.70;;
60060;SDS011;45933;51.336;12.612;2023-03-21T11:16:35;4.18;;;3.60;;
60060;SDS011;45933;51.336;12.612;2023-03-21T11:19:12;5.32;;;3.90;;
60060;SDS011;45933;51.336;12.612;2023-03-21T11:21:51;5.57;;;3.67;;
60060;SDS011;45933;51.336;12.612;2023-03-21T11:24:17;5.75;;;3.40;;
60060;SDS011;45933;51.336;12.612;2023-03-21T11:26:44;5.25;;;3.05;;
60060;SDS011;45933;51.336;12.612;2023-03-21T11:32:10;5.70;;;3.58;;
60060;SDS011;45933;51.336;12.612;2023-03-21T11:34:48;5.15;;;3.33;;
60060;SDS011;45933;51.336;12.612;2023-03-21T11:37:20;3.90;;;3.40;;
60060;SDS011;45933;51.336;12.612;2023-03-21T11:39:53;4.90;;;3.42;;
60060;SDS011;45933;51.336;12.612;2023-03-21T11:42:27;4.75;;;3.75;;
60060;SDS011;45933;51.336;12.612;2023-03-21T11:45:09;4.80;;;3.13;;
60060;SDS011;45933;51.336;12.612;2023-03-21T11:47:38;4.75;;;3.47;;
60060;SDS011;45933;51.336;12.612;2023-03-21T11:53:07;6.28;;;3.80;;
60060;SDS011;45933;51.336;12.612;2023-03-21T12:10:24;7.78;;;3.67;;
60060;SDS011;45933;51.336;12.612;2023-03-21T12:22:12;5.40;;;2.88;;
60060;SDS011;45933;51.336;12.612;2023-03-21T12:25:09;6.35;;;3.08;;
60060;SDS011;45933;51.336;12.612;2023-03-21T12:30:53;6.22;;;2.33;;
60060;SDS011;45933;51.336;12.612;2023-03-21T12:33:35;4.68;;;2.20;;
60060;SDS011;45933;51.336;12.612;2023-03-21T12:36:21;5.15;;;2.92;;
60060;SDS011;45933;51.336;12.612;2023-03-21T12:44:38;5.30;;;2.83;;
60060;SDS011;45933;51.336;12.612;2023-03-21T12:47:12;4.43;;;2.10;;
60060;SDS011;45933;51.336;12.612;2023-03-21T12:50:02;7.25;;;2.60;;
60060;SDS011;45933;51.336;12.612;2023-03-21T12:52:39;4.75;;;2.20;;
60060;SDS011;45933;51.336;12.612;2023-03-21T13:00:47;5.75;;;3.03;;
60060;SDS011;45933;51.336;12.612;2023-03-21T13:03:22;4.18;;;2.60;;
60060;SDS011;45933;51.336;12.612;2023-03-21T13:05:54;3.85;;;2.42;;
60060;SDS011;45933;51.336;12.612;2023-03-21T13:11:29;4.75;;;2.63;;
60060;SDS011;45933;51.336;12.612;2023-03-21T13:14:05;3.63;;;2.15;;
60060;SDS011;45933;51.336;12.612;2023-03-21T13:16:41;4.32;;;2.30;;
60060;SDS011;45933;51.336;12.612;2023-03-21T13:22:05;3.17;;;2.08;;
60060;SDS011;45933;51.336;12.612;2023-03-21T13:24:49;4.53;;;2.58;;
60060;SDS011;45933;51.336;12.612;2023-03-21T13:29:59;2.33;;;1.77;;
60060;SDS011;45933;51.336;12.612;2023-03-21T13:33:04;2.95;;;1.98;;
60060;SDS011;45933;51.336;12.612;2023-03-21T13:37:57;3.60;;;1.83;;
60060;SDS011;45933;51.336;12.612;2023-03-21T13:40:28;2.53;;;1.70;;
60060;SDS011;45933;51.336;12.612;2023-03-21T13:43:01;3.08;;;1.70;;
60060;SDS011;45933;51.336;12.612;2023-03-21T13:45:30;3.85;;;2.15;;
60060;SDS011;45933;51.336;12.612;2023-03-21T13:47:58;2.10;;;1.90;;
60060;SDS011;45933;51.336;12.612;2023-03-21T13:55:40;3.13;;;1.58;;
60060;SDS011;45933;51.336;12.612;2023-03-21T14:01:18;2.30;;;1.70;;
60060;SDS011;45933;51.336;12.612;2023-03-21T14:04:08;2.08;;;1.60;;
60060;SDS011;45933;51.336;12.612;2023-03-21T14:06:41;4.50;;;1.88;;
60060;SDS011;45933;51.336;12.612;2023-03-21T14:09:21;3.65;;;1.60;;
60060;SDS011;45933;51.336;12.612;2023-03-21T14:11:52;3.03;;;1.92;;
60060;SDS011;45933;51.336;12.612;2023-03-21T14:14:18;5.43;;;1.75;;
60060;SDS011;45933;51.336;12.612;2023-03-21T14:16:46;3.00;;;1.83;;
60060;SDS011;45933;51.336;12.612;2023-03-21T14:19:12;2.60;;;1.67;;
60060;SDS011;45933;51.336;12.612;2023-03-21T14:21:39;4.05;;;2.30;;
60060;SDS011;45933;51.336;12.612;2023-03-21T14:24:12;12.27;;;2.45;;
60060;SDS011;45933;51.336;12.612;2023-03-21T14:26:51;5.18;;;1.80;;
60060;SDS011;45933;51.336;12.612;2023-03-21T14:29:19;3.15;;;1.73;;
60060;SDS011;45933;51.336;12.612;2023-03-21T14:31:54;2.90;;;1.70;;
60060;SDS011;45933;51.336;12.612;2023-03-21T14:34:21;2.60;;;2.00;;
60060;SDS011;45933;51.336;12.612;2023-03-21T14:36:48;2.00;;;1.80;;
60060;SDS011;45933;51.336;12.612;2023-03-21T14:39:15;3.58;;;1.95;;
60060;SDS011;45933;51.336;12.612;2023-03-21T14:41:51;3.75;;;1.92;;
60060;SDS011;45933;51.336;12.612;2023-03-21T14:44:23;4.53;;;2.30;;
60060;SDS011;45933;51.336;12.612;2023-03-21T14:49:33;4.30;;;2.53;;
60060;SDS011;45933;51.336;12.612;2023-03-21T14:52:01;2.30;;;1.95;;
60060;SDS011;45933;51.336;12.612;2023-03-21T14:54:29;3.25;;;1.90;;
60060;SDS011;45933;51.336;12.612;2023-03-21T14:57:02;3.90;;;2.08;;
60060;SDS011;45933;51.336;12.612;2023-03-21T14:59:32;5.18;;;2.33;;
60060;SDS011;45933;51.336;12.612;2023-03-21T15:02:02;4.60;;;2.10;;
60060;SDS011;45933;51.336;12.612;2023-03-21T15:04:30;3.17;;;2.28;;
60060;SDS011;45933;51.336;12.612;2023-03-21T15:06:58;3.50;;;2.15;;
60060;SDS011;45933;51.336;12.612;2023-03-21T15:09:30;5.18;;;2.55;;
60060;SDS011;45933;51.336;12.612;2023-03-21T15:11:57;4.80;;;2.72;;
60060;SDS011;45933;51.336;12.612;2023-03-21T15:14:28;3.67;;;2.58;;
60060;SDS011;45933;51.336;12.612;2023-03-21T15:16:57;4.35;;;2.50;;
60060;SDS011;45933;51.336;12.612;2023-03-21T15:19:29;7.07;;;2.90;;
60060;SDS011;45933;51.336;12.612;2023-03-21T15:21:59;4.07;;;2.83;;
60060;SDS011;45933;51.336;12.612;2023-03-21T15:24:31;4.75;;;2.72;;
60060;SDS011;45933;51.336;12.612;2023-03-21T15:27:01;3.85;;;2.17;;
60060;SDS011;45933;51.336;12.612;2023-03-21T15:29:29;4.57;;;1.95;;
60060;SDS011;45933;51.336;12.612;2023-03-21T15:31:54;3.35;;;2.58;;
60060;SDS011;45933;51.336;12.612;2023-03-21T15:34:21;4.78;;;2.40;;
60060;SDS011;45933;51.336;12.612;2023-03-21T15:36:49;3.35;;;2.30;;
60060;SDS011;45933;51.336;12.612;2023-03-21T15:39:20;3.30;;;2.75;;
60060;SDS011;45933;51.336;12.612;2023-03-21T15:44:27;2.55;;;2.20;;
60060;SDS011;45933;51.336;12.612;2023-03-21T15:46:53;2.80;;;2.55;;
60060;SDS011;45933;51.336;12.612;2023-03-21T15:49:23;2.63;;;2.40;;
60060;SDS011;45933;51.336;12.612;2023-03-21T15:51:58;4.18;;;2.33;;
60060;SDS011;45933;51.336;12.612;2023-03-21T15:54:31;4.32;;;2.80;;
60060;SDS011;45933;51.336;12.612;2023-03-21T15:56:59;5.68;;;3.08;;
60060;SDS011;45933;51.336;12.612;2023-03-21T15:59:32;4.22;;;3.50;;
60060;SDS011;45933;51.336;12.612;2023-03-21T16:02:00;5.35;;;2.60;;
60060;SDS011;45933;51.336;12.612;2023-03-21T16:04:26;3.38;;;2.40;;
60060;SDS011;45933;51.336;12.612;2023-03-21T16:07:02;3.50;;;2.42;;
60060;SDS011;45933;51.336;12.612;2023-03-21T16:09:43;3.20;;;2.10;;
60060;SDS011;45933;51.336;12.612;2023-03-21T16:12:11;4.43;;;2.65;;
60060;SDS011;45933;51.336;12.612;2023-03-21T16:14:38;3.75;;;2.50;;
60060;SDS011;45933;51.336;12.612;2023-03-21T16:19:52;3.90;;;2.53;;